createdAt,value
2022-09-03T00:04:28.953Z,36.00
2022-09-03T00:09:35.490Z,35.73
2022-09-03T00:14:41.026Z,35.94
2022-09-03T00:19:48.762Z,36.19
2022-09-03T00:24:51.666Z,35.93
2022-09-03T00:29:56.569Z,36.26
2022-09-03T00:35:05.371Z,36.31
2022-09-03T00:40:15.198Z,36.43
2022-09-03T00:45:28.954Z,35.75
2022-09-03T00:50:42.585Z,36.54
2022-09-03T00:55:51.241Z,36.43
2022-09-03T01:00:53.969Z,36.26
2022-09-03T01:06:07.159Z,36.31
2022-09-03T01:11:20.001Z,36.88
2022-09-03T01:16:27.990Z,36.94
2022-09-03T01:21:47.027Z,36.75
2022-09-03T01:27:11.035Z,37.10
2022-09-03T01:32:18.403Z,37.12
2022-09-03T01:37:28.681Z,36.85
2022-09-03T01:42:43.891Z,37.00
2022-09-03T01:47:57.730Z,37.15
2022-09-03T01:53:04.977Z,37.20
2022-09-03T01:58:12.347Z,37.54
2022-09-03T02:03:17.470Z,37.65
2022-09-03T02:08:20.879Z,37.53
2022-09-03T02:13:25.742Z,37.37
2022-09-03T02:18:31.890Z,38.03
2022-09-03T02:23:34.815Z,37.98
2022-09-03T02:28:37.744Z,37.78
2022-09-03T02:33:45.546Z,37.97
2022-09-03T02:38:48.545Z,38.05
2022-09-03T02:43:55.076Z,38.05
2022-09-03T02:48:59.191Z,38.62
2022-09-03T02:54:01.991Z,38.54
2022-09-03T02:59:05.406Z,38.28
2022-09-03T03:04:09.593Z,38.61
2022-09-03T03:09:12.305Z,38.50
2022-09-03T03:14:15.345Z,38.84
2022-09-03T03:19:19.527Z,39.27
2022-09-03T03:24:22.247Z,39.40
2022-09-03T03:29:26.109Z,39.22
2022-09-03T03:34:30.180Z,38.96
2022-09-03T03:39:32.903Z,39.25
2022-09-03T03:44:35.644Z,39.15
2022-09-03T03:49:40.047Z,39.82
2022-09-03T03:54:42.737Z,39.34
2022-09-03T03:59:45.471Z,39.69
2022-09-03T04:04:49.509Z,39.68
2022-09-03T04:09:52.277Z,39.75
2022-09-03T04:14:54.983Z,40.06
2022-09-03T04:19:59.089Z,39.95
2022-09-03T04:25:02.187Z,40.07
2022-09-03T04:30:05.661Z,39.88
2022-09-03T04:35:10.330Z,40.26
2022-09-03T04:40:13.041Z,40.03
2022-09-03T04:45:19.529Z,40.64
2022-09-03T04:50:23.665Z,40.42
2022-09-03T04:55:35.944Z,40.71
2022-09-03T05:00:38.948Z,40.80
2022-09-03T05:05:43.018Z,40.35
2022-09-03T05:10:45.701Z,40.93
2022-09-03T05:15:48.358Z,41.10
2022-09-03T05:20:59.642Z,40.93
2022-09-03T05:26:03.678Z,41.13
2022-09-03T05:31:08.212Z,40.88
2022-09-03T05:36:13.996Z,40.98
2022-09-03T05:41:18.995Z,40.98
2022-09-03T05:46:21.991Z,41.25
2022-09-03T05:51:26.179Z,40.88
2022-09-03T05:56:30.738Z,41.11
2022-09-03T06:01:34.900Z,41.21
2022-09-03T06:06:40.318Z,41.63
2022-09-03T06:11:43.680Z,41.41
2022-09-03T06:16:49.406Z,41.36
2022-09-03T06:21:53.590Z,41.11
2022-09-03T06:26:56.479Z,40.85
2022-09-03T06:31:59.435Z,40.30
2022-09-03T06:37:03.491Z,40.24
2022-09-03T06:42:06.853Z,40.16
2022-09-03T06:47:12.409Z,40.29
2022-09-03T06:52:16.502Z,40.13
2022-09-03T06:57:19.281Z,40.37
2022-09-03T07:02:22.911Z,39.70
2022-09-03T07:07:27.012Z,40.31
2022-09-03T07:12:29.812Z,40.42
2022-09-03T07:17:32.632Z,40.70
2022-09-03T07:22:37.085Z,40.55
2022-09-03T07:27:39.846Z,40.96
2022-09-03T07:32:42.518Z,40.97
2022-09-03T07:37:46.658Z,41.20
2022-09-03T07:42:54.512Z,40.94
2022-09-03T07:47:57.948Z,40.68
2022-09-03T07:53:02.043Z,40.45
2022-09-03T07:58:04.803Z,41.17
2022-09-03T08:03:08.744Z,40.88
2022-09-03T08:08:15.525Z,40.78
2022-09-03T08:13:19.309Z,40.46
2022-09-03T08:18:22.824Z,41.45
2022-09-03T08:23:27.258Z,40.83
2022-09-03T08:28:30.199Z,41.17
2022-09-03T08:33:38.606Z,40.64
2022-09-03T08:38:46.129Z,41.00
2022-09-03T08:44:08.790Z,40.89
2022-09-03T08:49:14.341Z,40.97
2022-09-03T08:54:18.722Z,41.11
2022-09-03T08:59:22.358Z,40.89
2022-09-03T09:04:45.091Z,41.57
2022-09-03T09:09:54.151Z,41.30
2022-09-03T09:15:07.489Z,41.71
2022-09-03T09:20:17.099Z,41.62
2022-09-03T09:25:23.214Z,41.88
2022-09-03T09:30:25.969Z,41.59
2022-09-03T09:35:29.104Z,42.03
2022-09-03T09:40:34.884Z,42.25
2022-09-03T09:45:40.727Z,42.16
2022-09-03T09:50:43.467Z,42.34
2022-09-03T09:55:55.134Z,42.82
2022-09-03T10:01:22.276Z,42.74
2022-09-03T10:06:43.483Z,42.87
2022-09-03T10:11:51.211Z,43.16
2022-09-03T10:16:58.395Z,43.47
2022-09-03T10:22:06.031Z,43.01
2022-09-03T10:27:12.540Z,44.05
2022-09-03T10:32:23.822Z,43.61
2022-09-03T10:37:31.004Z,43.85
2022-09-03T10:42:46.534Z,43.81
2022-09-03T10:48:12.037Z,44.07
2022-09-03T10:53:21.993Z,43.77
2022-09-03T10:58:39.069Z,44.18
2022-09-03T11:03:46.756Z,43.89
2022-09-03T11:08:54.845Z,43.91
2022-09-03T11:14:01.565Z,44.05
2022-09-03T11:19:06.367Z,44.27
2022-09-03T11:24:14.009Z,44.68
2022-09-03T11:29:21.970Z,44.43
2022-09-03T11:34:32.461Z,44.52
2022-09-03T11:39:37.560Z,45.27
2022-09-03T11:44:51.248Z,46.14
2022-09-03T11:50:06.701Z,45.93
2022-09-03T11:55:09.819Z,46.08
2022-09-03T12:00:18.530Z,46.27
2022-09-03T12:05:31.098Z,46.43
2022-09-03T12:10:39.743Z,46.68
2022-09-03T12:15:57.086Z,46.67
2022-09-03T12:21:05.109Z,46.23
2022-09-03T12:26:14.737Z,46.86
2022-09-03T12:31:23.605Z,47.34
2022-09-03T12:36:27.054Z,47.31
2022-09-03T12:41:32.476Z,47.20
2022-09-03T12:46:36.686Z,47.70
2022-09-03T12:51:51.055Z,47.71
2022-09-03T12:56:57.707Z,46.93
2022-09-03T13:02:04.612Z,47.51
2022-09-03T13:07:09.622Z,47.74
2022-09-03T13:12:22.776Z,48.08
2022-09-03T13:17:39.634Z,47.90
2022-09-03T13:22:51.562Z,47.85
2022-09-03T13:28:02.473Z,47.81
2022-09-03T13:33:10.519Z,47.82
2022-09-03T13:38:22.945Z,47.47
2022-09-03T13:43:31.260Z,47.54
2022-09-03T13:48:57.180Z,47.56
2022-09-03T13:54:06.095Z,47.75
2022-09-03T13:59:14.653Z,47.54
2022-09-03T14:04:23.992Z,47.63
2022-09-03T14:09:35.027Z,47.74
2022-09-03T14:14:42.772Z,48.21
2022-09-03T14:19:50.132Z,47.96
2022-09-03T14:24:56.789Z,47.63
2022-09-03T14:30:01.730Z,48.09
2022-09-03T14:35:18.523Z,48.04
2022-09-03T14:40:26.585Z,47.92
2022-09-03T14:45:52.950Z,47.60
2022-09-03T14:51:13.681Z,47.80
2022-09-03T14:56:25.924Z,47.89
2022-09-03T15:01:31.439Z,48.10
2022-09-03T15:06:51.155Z,48.34
2022-09-03T15:11:56.461Z,48.42
2022-09-03T15:17:01.646Z,49.20
2022-09-03T15:22:15.054Z,49.18
2022-09-03T15:27:37.382Z,49.38
2022-09-03T15:33:03.481Z,50.14
2022-09-03T15:38:11.137Z,50.57
2022-09-03T15:43:19.413Z,49.60
2022-09-03T15:48:27.941Z,49.79
2022-09-03T15:53:36.096Z,49.25
2022-09-03T15:58:43.320Z,48.77
2022-09-03T16:04:01.321Z,48.72
2022-09-03T16:09:09.428Z,48.92
2022-09-03T16:14:16.191Z,48.76
2022-09-03T16:19:23.023Z,48.41
2022-09-03T16:24:32.478Z,48.68
2022-09-03T16:29:35.201Z,48.48
2022-09-03T16:34:46.520Z,47.93
2022-09-03T16:39:57.107Z,48.29
2022-09-03T16:45:11.829Z,48.44
2022-09-03T16:50:28.072Z,48.50
2022-09-03T16:55:44.722Z,48.08
2022-09-03T17:00:59.137Z,48.33
2022-09-03T17:06:15.217Z,48.39
2022-09-03T17:11:40.627Z,47.97
2022-09-03T17:16:52.345Z,48.00
2022-09-03T17:22:07.278Z,48.20
2022-09-03T17:27:28.364Z,48.35
2022-09-03T17:32:46.127Z,48.64
2022-09-03T17:37:57.013Z,49.53
2022-09-03T17:43:06.581Z,50.04
2022-09-03T17:48:24.262Z,50.07
2022-09-03T17:53:33.581Z,52.25
2022-09-03T17:58:40.669Z,52.20
2022-09-03T18:03:47.598Z,52.17
2022-09-03T18:08:54.464Z,52.10
2022-09-03T18:14:07.857Z,52.08
2022-09-03T18:19:19.124Z,53.29
2022-09-03T18:24:50.837Z,54.03
2022-09-03T18:30:17.530Z,53.79
2022-09-03T18:35:37.631Z,54.38
2022-09-03T18:41:05.035Z,54.71
2022-09-03T18:52:16.626Z,55.64
2022-09-03T18:57:39.475Z,55.28
2022-09-03T19:03:08.990Z,56.08
2022-09-03T19:08:33.278Z,57.46
2022-09-03T19:13:55.097Z,58.69
2022-09-03T19:19:34.929Z,59.09
2022-09-03T19:24:55.062Z,59.58
2022-09-03T19:30:22.743Z,58.11
2022-09-03T19:35:49.405Z,58.66
2022-09-03T19:41:18.057Z,58.45
2022-09-03T19:46:48.260Z,57.94
2022-09-03T19:52:16.287Z,57.97
2022-09-03T19:57:37.425Z,58.49
2022-09-03T20:02:58.167Z,58.36
2022-09-03T20:08:19.732Z,58.71
2022-09-03T20:13:22.512Z,58.22
2022-09-03T20:18:34.788Z,57.85
2022-09-03T20:23:44.522Z,58.10
2022-09-03T20:29:00.701Z,58.14
2022-09-03T20:34:11.568Z,58.11
2022-09-03T20:39:33.437Z,57.67
2022-09-03T20:44:47.508Z,57.44
2022-09-03T20:49:54.268Z,58.04
2022-09-03T20:55:06.275Z,57.97
2022-09-03T21:00:12.564Z,57.53
2022-09-03T21:05:20.395Z,57.72
2022-09-03T21:10:31.828Z,58.54
2022-09-03T21:15:43.459Z,58.71
2022-09-03T21:20:48.631Z,57.73
2022-09-03T21:26:00.314Z,58.31
2022-09-03T21:31:11.485Z,58.55
2022-09-03T21:36:17.652Z,57.85
2022-09-03T21:41:27.334Z,57.61
2022-09-03T21:46:33.692Z,58.40
2022-09-03T21:51:39.826Z,58.03
2022-09-03T21:57:03.148Z,58.34
2022-09-03T22:02:09.727Z,58.34
2022-09-03T22:07:17.363Z,58.54
2022-09-03T22:12:24.810Z,58.45
2022-09-03T22:17:31.698Z,58.45
2022-09-03T22:22:40.738Z,58.43
2022-09-03T22:27:48.739Z,58.37
2022-09-03T22:32:59.658Z,58.46
2022-09-03T22:38:18.422Z,59.03
2022-09-03T22:43:37.079Z,58.60
2022-09-03T22:49:09.258Z,58.52
2022-09-03T22:54:21.921Z,59.67
2022-09-03T22:59:30.261Z,59.09
2022-09-03T23:04:38.229Z,59.96
2022-09-03T23:09:42.011Z,59.70
2022-09-03T23:14:51.203Z,60.13
2022-09-03T23:19:58.660Z,59.94
2022-09-03T23:25:05.498Z,59.64
2022-09-03T23:30:10.334Z,59.66
2022-09-03T23:35:17.716Z,60.28
2022-09-03T23:40:32.946Z,60.16
2022-09-03T23:45:44.125Z,60.65
2022-09-03T23:50:52.753Z,60.00
2022-09-03T23:56:06.131Z,59.67
